Time;durP1;ratioP1;P1;durP2;ratioP2;P2;SDS_P1;SDS_P2;PMS_P1;PMS_P2;Temp;Humidity;BMP_temperature;BMP_pressure;BME280_temperature;BME280_humidity;BME280_pressure;Samples;Min_cycle;Max_cycle;Signal;HPM_P1;HPM_P2
2022/09/14 00:02:06;;;;;;;5.20;2.00;;;16.70;99.90;;;;;;5055365;28;20021;-79
2022/09/14 00:04:32;;;;;;;6.28;2.30;;;16.70;99.90;;;;;;5055418;28;20107;-80
2022/09/14 00:06:58;;;;;;;8.27;1.92;;;16.70;99.90;;;;;;5054616;28;20497;-79
2022/09/14 00:09:24;;;;;;;2.50;2.22;;;16.70;99.90;;;;;;5055287;28;20029;-80
2022/09/14 00:11:50;;;;;;;7.18;2.25;;;16.70;99.90;;;;;;5054328;28;20044;-81
2022/09/14 00:14:17;;;;;;;6.88;2.50;;;16.70;99.90;;;;;;5055317;28;20025;-79
2022/09/14 00:16:43;;;;;;;6.05;1.90;;;16.70;99.90;;;;;;5054755;28;20029;-80
2022/09/14 00:19:35;;;;;;;3.50;2.28;;;16.70;99.90;;;;;;5054301;28;20025;-79
2022/09/14 00:22:00;;;;;;;5.82;2.38;;;16.70;99.90;;;;;;5053739;28;20076;-79
2022/09/14 00:24:29;;;;;;;5.55;2.65;;;16.70;99.90;;;;;;5055159;28;20083;-80
2022/09/14 00:26:55;;;;;;;8.18;2.30;;;16.70;99.90;;;;;;5054353;28;20025;-79
2022/09/14 00:29:20;;;;;;;4.65;2.50;;;16.70;99.90;;;;;;5054989;28;20108;-79
2022/09/14 00:31:46;;;;;;;8.23;2.30;;;16.70;99.90;;;;;;5054556;28;20427;-81
2022/09/14 00:34:15;;;;;;;7.18;2.58;;;16.80;99.90;;;;;;5054454;28;20021;-79
2022/09/14 00:36:43;;;;;;;5.75;2.30;;;16.70;99.90;;;;;;5054998;28;20059;-80
2022/09/14 00:39:10;;;;;;;7.53;2.60;;;16.80;99.90;;;;;;5060388;28;20031;-79
2022/09/14 00:41:39;;;;;;;6.07;2.20;;;16.80;99.90;;;;;;5067013;28;20021;-79
2022/09/14 00:44:17;;;;;;;5.60;2.22;;;16.70;99.90;;;;;;5067282;28;20088;-79
2022/09/14 00:46:48;;;;;;;5.03;2.30;;;16.70;99.90;;;;;;5069851;28;20377;-80
2022/09/14 00:49:21;;;;;;;5.75;2.60;;;16.70;99.90;;;;;;5066894;28;20025;-80
2022/09/14 00:52:12;;;;;;;5.78;2.65;;;16.70;99.90;;;;;;5065236;28;20059;-80
2022/09/14 00:54:44;;;;;;;;;;;16.80;99.90;;;;;;5063904;28;20067;-78
2022/09/14 00:57:10;;;;;;;6.18;2.92;;;16.70;99.90;;;;;;5066133;28;19905;-79
2022/09/14 00:59:38;;;;;;;11.10;3.20;;;16.70;99.90;;;;;;5065210;28;20377;-80
2022/09/14 01:02:06;;;;;;;8.73;3.05;;;16.70;99.90;;;;;;5055024;28;20040;-78
2022/09/14 01:04:31;;;;;;;6.45;2.67;;;16.70;99.90;;;;;;5055416;28;20025;-80
2022/09/14 01:07:11;;;;;;;7.50;3.05;;;16.70;99.90;;;;;;5055554;28;20025;-80
2022/09/14 01:09:44;;;;;;;6.82;2.83;;;16.70;99.90;;;;;;5053871;28;20047;-79
2022/09/14 01:12:34;;;;;;;8.73;3.15;;;16.60;99.90;;;;;;5053535;28;20045;-80
2022/09/14 01:15:12;;;;;;;6.63;3.25;;;16.60;99.90;;;;;;5053401;28;20033;-80
2022/09/14 01:18:15;;;;;;;5.57;2.78;;;16.60;99.90;;;;;;5053287;28;20040;-79
2022/09/14 01:20:51;;;;;;;8.07;2.63;;;16.60;99.90;;;;;;5053498;28;20025;-80
2022/09/14 01:23:40;;;;;;;3.90;2.88;;;16.60;99.90;;;;;;5052956;28;20098;-80
2022/09/14 01:26:37;;;;;;;7.88;2.67;;;16.60;99.90;;;;;;5053923;28;20067;-80
2022/09/14 01:29:19;;;;;;;9.73;2.60;;;16.60;99.90;;;;;;5052094;28;20033;-80
2022/09/14 01:31:57;;;;;;;4.80;2.45;;;16.60;99.90;;;;;;5053871;28;20040;-81
2022/09/14 01:34:33;;;;;;;9.02;2.30;;;16.60;99.90;;;;;;5054404;28;20032;-80
2022/09/14 01:37:05;;;;;;;9.65;2.75;;;16.50;99.90;;;;;;5053689;28;20436;-80
2022/09/14 01:39:33;;;;;;;5.95;2.42;;;16.50;99.90;;;;;;5054086;28;20029;-80
2022/09/14 01:42:00;;;;;;;4.40;2.13;;;16.60;99.90;;;;;;5053481;28;20500;-80
2022/09/14 01:44:31;;;;;;;6.00;2.22;;;16.60;99.90;;;;;;5052324;28;20032;-79
2022/09/14 01:47:05;;;;;;;7.03;2.75;;;16.50;99.90;;;;;;5053420;28;20029;-80
2022/09/14 01:49:39;;;;;;;5.22;2.53;;;16.60;99.90;;;;;;5053804;28;20108;-80
2022/09/14 01:52:11;;;;;;;4.47;1.98;;;16.60;99.90;;;;;;5053384;28;20044;-80
2022/09/14 01:54:48;;;;;;;5.60;2.17;;;16.50;99.90;;;;;;5055502;28;20060;-80
2022/09/14 01:57:14;;;;;;;4.72;1.92;;;16.60;99.90;;;;;;5058551;28;20055;-80
2022/09/14 01:59:44;;;;;;;9.30;2.35;;;16.60;99.90;;;;;;5058456;28;20473;-81
2022/09/14 02:02:27;;;;;;;6.75;2.28;;;16.60;99.90;;;;;;5057415;28;20078;-79
2022/09/14 02:05:11;;;;;;;10.95;2.08;;;16.60;99.90;;;;;;5056933;28;20074;-80
2022/09/14 02:07:37;;;;;;;3.15;1.98;;;16.50;99.90;;;;;;5057126;28;20021;-80
2022/09/14 02:10:07;;;;;;;9.82;2.83;;;16.40;99.90;;;;;;5057018;28;20513;-80
2022/09/14 02:12:33;;;;;;;9.23;2.38;;;16.40;99.90;;;;;;5056053;28;20051;-80
2022/09/14 02:14:58;;;;;;;5.05;1.90;;;16.40;99.90;;;;;;5056783;28;20021;-80
2022/09/14 02:17:25;;;;;;;6.03;2.42;;;16.40;99.90;;;;;;5056798;28;20171;-79
2022/09/14 02:19:56;;;;;;;4.32;2.42;;;16.40;99.90;;;;;;5055787;28;20021;-80
2022/09/14 02:22:23;;;;;;;6.82;1.75;;;16.40;99.90;;;;;;5056470;28;20024;-80
2022/09/14 02:24:49;;;;;;;4.65;2.17;;;16.40;99.90;;;;;;5056546;28;20044;-80
2022/09/14 02:27:15;;;;;;;5.03;1.80;;;16.40;99.90;;;;;;5055894;28;20025;-80
2022/09/14 02:29:41;;;;;;;4.82;2.00;;;16.40;99.90;;;;;;5056651;28;20017;-79
2022/09/14 02:32:30;;;;;;;5.25;1.52;;;16.40;99.90;;;;;;5056202;28;20376;-79
2022/09/14 02:35:36;;;;;;;4.90;1.80;;;16.40;99.90;;;;;;5053950;28;20037;-80
2022/09/14 02:38:20;;;;;;;5.85;1.83;;;16.30;99.90;;;;;;5056216;28;20025;-80
2022/09/14 02:40:55;;;;;;;3.55;1.90;;;16.30;99.90;;;;;;5055730;28;20478;-80
2022/09/14 02:43:55;;;;;;;6.70;1.92;;;16.30;99.90;;;;;;5056526;28;20460;-80
2022/09/14 02:46:46;;;;;;;6.38;1.88;;;16.30;99.90;;;;;;5056250;28;20511;-80
2022/09/14 02:49:43;;;;;;;4.60;1.77;;;16.30;99.90;;;;;;5056002;28;20100;-82
2022/09/14 02:52:17;;;;;;;4.00;1.63;;;16.30;99.90;;;;;;5049230;28;20044;-79
2022/09/14 02:54:57;;;;;;;4.45;2.00;;;16.30;99.90;;;;;;5056059;28;20104;-80
2022/09/14 02:57:23;;;;;;;;;;;16.30;99.90;;;;;;5056422;28;20029;-80
2022/09/14 02:59:49;;;;;;;4.07;1.52;;;16.30;99.90;;;;;;5056081;28;20000;-79
2022/09/14 03:02:14;;;;;;;6.57;1.80;;;16.30;99.90;;;;;;5055726;28;20484;-80
2022/09/14 03:04:41;;;;;;;4.10;1.48;;;16.30;99.90;;;;;;5055964;28;20424;-80
2022/09/14 03:07:07;;;;;;;6.53;1.52;;;16.30;99.90;;;;;;5055605;28;20025;-78
2022/09/14 03:09:33;;;;;;;4.80;1.63;;;16.30;99.90;;;;;;5054662;28;20049;-79
2022/09/14 03:11:58;;;;;;;6.00;1.40;;;16.30;99.90;;;;;;5055695;28;20079;-78
2022/09/14 03:14:24;;;;;;;4.97;1.85;;;16.30;99.90;;;;;;5056025;28;20016;-80
2022/09/14 03:16:49;;;;;;;4.50;1.20;;;16.20;99.90;;;;;;5055016;28;20017;-80
2022/09/14 03:19:18;;;;;;;3.20;1.48;;;16.20;99.90;;;;;;5055355;28;20028;-81
2022/09/14 03:21:43;;;;;;;2.80;1.80;;;16.20;99.90;;;;;;5054639;28;20028;-80
2022/09/14 03:24:09;;;;;;;6.35;1.50;;;16.20;99.90;;;;;;5055121;28;20048;-80
2022/09/14 03:26:37;;;;;;;1.95;1.13;;;16.20;99.90;;;;;;5055650;28;20047;-80
2022/09/14 03:29:04;;;;;;;2.05;1.42;;;16.30;99.90;;;;;;5054610;28;20048;-80
2022/09/14 03:31:30;;;;;;;4.70;1.50;;;16.10;99.90;;;;;;5054826;28;20029;-80
2022/09/14 03:33:58;;;;;;;3.53;1.15;;;16.20;99.90;;;;;;5055301;28;20095;-80
2022/09/14 03:36:25;;;;;;;3.65;1.02;;;16.20;99.90;;;;;;5054840;28;20408;-80
2022/09/14 03:38:53;;;;;;;3.72;1.00;;;16.30;99.90;;;;;;5055112;28;20029;-80
2022/09/14 03:41:20;;;;;;;7.93;1.58;;;16.20;99.90;;;;;;5054696;28;20025;-80
2022/09/14 03:43:46;;;;;;;4.32;1.42;;;16.20;99.90;;;;;;5054237;28;20025;-80
2022/09/14 03:46:17;;;;;;;6.35;1.15;;;16.20;99.90;;;;;;5054921;28;20028;-80
2022/09/14 03:48:43;;;;;;;6.88;1.67;;;16.20;99.90;;;;;;5054843;28;20036;-80
2022/09/14 03:51:11;;;;;;;3.17;1.05;;;16.30;99.90;;;;;;5054023;28;20064;-80
2022/09/14 03:53:37;;;;;;;5.72;1.38;;;16.20;99.90;;;;;;5054727;28;20033;-80
2022/09/14 03:56:11;;;;;;;4.93;1.33;;;16.20;99.90;;;;;;5054960;28;20034;-79
2022/09/14 03:58:37;;;;;;;3.75;1.38;;;16.30;99.90;;;;;;5054039;28;20090;-80
2022/09/14 04:01:08;;;;;;;4.60;1.30;;;16.20;99.90;;;;;;5055115;28;20538;-80
2022/09/14 04:03:34;;;;;;;6.50;0.98;;;16.30;99.90;;;;;;5054745;28;20025;-78
2022/09/14 04:06:04;;;;;;;4.78;1.20;;;16.20;99.90;;;;;;5053834;28;20028;-79
2022/09/14 04:08:30;;;;;;;3.20;1.00;;;16.10;99.90;;;;;;5054504;28;20103;-79
2022/09/14 04:10:55;;;;;;;4.40;1.38;;;16.20;99.90;;;;;;5053805;28;20423;-79
2022/09/14 04:13:21;;;;;;;4.45;1.17;;;16.20;99.90;;;;;;5054391;28;20037;-79
2022/09/14 04:15:57;;;;;;;5.47;1.30;;;16.20;99.90;;;;;;5054153;28;20060;-79
2022/09/14 04:18:23;;;;;;;4.00;1.10;;;16.20;99.90;;;;;;5052485;28;20040;-81
2022/09/14 04:21:00;;;;;;;4.78;1.08;;;16.20;99.90;;;;;;5054309;28;20029;-81
2022/09/14 04:23:25;;;;;;;3.67;1.13;;;16.20;99.90;;;;;;5054269;28;20081;-79
2022/09/14 04:25:52;;;;;;;5.47;1.35;;;16.10;99.90;;;;;;5053256;28;20451;-79
2022/09/14 04:28:18;;;;;;;4.38;1.00;;;16.10;99.90;;;;;;5053927;28;20017;-79
2022/09/14 04:30:44;;;;;;;1.92;1.23;;;16.10;99.90;;;;;;5053969;28;20033;-79
2022/09/14 04:33:09;;;;;;;3.97;1.10;;;16.00;99.90;;;;;;5053179;28;20090;-80
2022/09/14 04:35:36;;;;;;;6.55;1.85;;;16.10;99.90;;;;;;5054790;28;20025;-79
2022/09/14 04:38:03;;;;;;;6.25;1.60;;;16.00;99.90;;;;;;5053708;28;20100;-78
2022/09/14 04:40:29;;;;;;;2.78;1.20;;;16.00;99.90;;;;;;5053711;28;20112;-78
2022/09/14 04:42:54;;;;;;;4.22;1.48;;;16.00;99.90;;;;;;5054142;28;20056;-77
2022/09/14 04:45:20;;;;;;;6.45;1.75;;;16.00;99.90;;;;;;5054848;28;20032;-80
2022/09/14 04:47:45;;;;;;;3.55;1.45;;;15.90;99.90;;;;;;5052968;28;20388;-80
2022/09/14 04:50:11;;;;;;;5.53;1.45;;;16.00;99.90;;;;;;5053682;28;20028;-79
2022/09/14 04:52:36;;;;;;;3.83;1.38;;;16.00;99.90;;;;;;5053539;28;20062;-80
2022/09/14 04:55:09;;;;;;;5.90;1.83;;;16.00;99.90;;;;;;5053016;28;20100;-79
2022/09/14 04:57:34;;;;;;;2.92;1.52;;;15.90;99.90;;;;;;5054915;28;20048;-78
2022/09/14 05:00:00;;;;;;;4.68;2.08;;;15.90;99.90;;;;;;5054817;28;20021;-78
2022/09/14 05:02:25;;;;;;;4.40;1.80;;;15.90;99.90;;;;;;5053210;28;20065;-80
2022/09/14 05:04:51;;;;;;;3.22;1.60;;;15.90;99.90;;;;;;5055083;28;20024;-79
2022/09/14 05:07:20;;;;;;;4.22;1.92;;;15.90;99.90;;;;;;5054413;28;20025;-79
2022/09/14 05:09:45;;;;;;;4.18;1.50;;;15.90;99.90;;;;;;5057256;28;20032;-80
2022/09/14 05:12:11;;;;;;;5.00;1.83;;;15.90;99.90;;;;;;5056613;28;20082;-79
2022/09/14 05:14:36;;;;;;;5.35;1.73;;;15.90;99.90;;;;;;5056904;28;20075;-78
2022/09/14 05:17:03;;;;;;;5.57;2.30;;;15.90;99.90;;;;;;5066778;28;20021;-79
2022/09/14 05:19:28;;;;;;;3.00;1.48;;;15.90;99.90;;;;;;5062923;28;20081;-79
2022/09/14 05:21:54;;;;;;;2.88;1.48;;;15.90;99.90;;;;;;5062372;28;20067;-80
2022/09/14 05:24:20;;;;;;;5.70;2.20;;;15.90;99.90;;;;;;5060865;28;20076;-79
2022/09/14 05:26:46;;;;;;;5.43;2.00;;;15.90;99.90;;;;;;5063186;28;20033;-79
2022/09/14 05:29:13;;;;;;;5.18;2.00;;;15.90;99.90;;;;;;5063305;28;20017;-79
2022/09/14 05:31:39;;;;;;;4.88;2.03;;;15.90;99.90;;;;;;5066078;28;20029;-78
2022/09/14 05:34:05;;;;;;;5.35;2.42;;;15.90;99.90;;;;;;5061029;28;20083;-79
2022/09/14 05:36:30;;;;;;;5.40;2.55;;;15.90;99.90;;;;;;5056804;28;20025;-80
2022/09/14 05:38:59;;;;;;;5.78;2.30;;;15.90;99.90;;;;;;5057613;28;20350;-79
2022/09/14 05:41:25;;;;;;;10.48;2.70;;;15.90;99.90;;;;;;5057400;28;20056;-79
2022/09/14 05:43:50;;;;;;;4.30;2.22;;;15.90;99.90;;;;;;5056514;28;20389;-80
2022/09/14 05:46:21;;;;;;;4.10;2.42;;;15.90;99.90;;;;;;5057563;28;20472;-79
2022/09/14 05:48:50;;;;;;;5.70;2.15;;;15.90;99.90;;;;;;5057646;28;20029;-80
2022/09/14 05:51:18;;;;;;;5.78;2.97;;;15.90;99.90;;;;;;5057038;28;20033;-80
2022/09/14 05:53:50;;;;;;;7.55;2.30;;;15.90;99.90;;;;;;5057900;28;20033;-79
2022/09/14 05:56:19;;;;;;;2.58;2.30;;;15.90;99.90;;;;;;5057607;28;20029;-80
2022/09/14 05:58:48;;;;;;;5.68;2.83;;;15.90;99.90;;;;;;5056376;28;20041;-80
2022/09/14 06:01:19;;;;;;;5.70;2.80;;;16.00;99.90;;;;;;5057570;28;20025;-80
2022/09/14 06:03:46;;;;;;;6.75;2.45;;;16.00;99.90;;;;;;5056257;28;20455;-79
2022/09/14 06:06:14;;;;;;;7.65;2.20;;;16.00;99.90;;;;;;5057219;28;20079;-80
2022/09/14 06:08:40;;;;;;;7.53;2.72;;;16.10;99.90;;;;;;5056939;28;20087;-80
2022/09/14 06:11:15;;;;;;;7.88;2.80;;;16.10;99.90;;;;;;5056705;28;20465;-80
2022/09/14 06:13:41;;;;;;;6.05;2.30;;;16.10;99.90;;;;;;5056963;28;20033;-80
2022/09/14 06:16:10;;;;;;;11.77;2.72;;;16.10;99.90;;;;;;5057076;28;20067;-80
2022/09/14 06:18:37;;;;;;;7.28;2.50;;;16.20;99.90;;;;;;5056290;28;20037;-80
2022/09/14 06:21:03;;;;;;;3.28;2.20;;;16.20;99.90;;;;;;5056996;28;20100;-80
2022/09/14 06:23:30;;;;;;;7.50;2.78;;;16.20;99.90;;;;;;5056073;28;20120;-80
2022/09/14 06:25:57;;;;;;;8.15;2.85;;;16.20;99.90;;;;;;5055719;28;20068;-80
2022/09/14 06:28:24;;;;;;;5.35;1.98;;;16.20;99.90;;;;;;5056247;28;20036;-80
2022/09/14 06:30:49;;;;;;;6.20;2.15;;;16.20;99.90;;;;;;5056406;28;20029;-79
2022/09/14 06:33:16;;;;;;;5.07;1.88;;;16.20;99.90;;;;;;5055754;28;20123;-80
2022/09/14 06:35:45;;;;;;;8.73;2.20;;;16.10;99.90;;;;;;5056469;28;20104;-80
2022/09/14 06:38:11;;;;;;;3.40;1.60;;;16.20;99.90;;;;;;5056344;28;20056;-79
2022/09/14 06:40:36;;;;;;;4.93;2.58;;;16.10;99.90;;;;;;5054741;28;20075;-79
2022/09/14 06:43:02;;;;;;;7.82;2.22;;;16.10;99.90;;;;;;5056309;28;20025;-80
2022/09/14 06:45:29;;;;;;;5.40;2.08;;;16.10;99.90;;;;;;5056547;28;20032;-80
2022/09/14 06:47:56;;;;;;;2.47;1.90;;;16.10;99.90;;;;;;5056321;28;20036;-80
2022/09/14 06:50:21;;;;;;;6.90;1.92;;;16.20;99.90;;;;;;5055936;28;20106;-79
2022/09/14 06:52:50;;;;;;;7.85;2.90;;;16.20;99.90;;;;;;5055498;28;20072;-79
2022/09/14 06:55:16;;;;;;;5.22;2.30;;;16.30;99.90;;;;;;5056276;28;20108;-79
2022/09/14 06:57:41;;;;;;;9.18;2.63;;;16.30;99.90;;;;;;5056016;28;20040;-78
2022/09/14 07:00:07;;;;;;;5.18;2.80;;;16.30;99.90;;;;;;5055566;28;20047;-79
2022/09/14 07:02:33;;;;;;;10.43;2.88;;;16.30;99.90;;;;;;5055656;28;20117;-78
2022/09/14 07:04:58;;;;;;;5.35;2.60;;;16.30;99.90;;;;;;5057338;28;20021;-80
2022/09/14 07:07:24;;;;;;;4.35;2.53;;;16.30;99.90;;;;;;5059325;28;20032;-79
2022/09/14 07:09:49;;;;;;;7.47;2.47;;;16.40;99.90;;;;;;5056971;28;20100;-79
2022/09/14 07:12:15;;;;;;;9.20;2.95;;;16.40;99.90;;;;;;5055562;28;20025;-80
2022/09/14 07:14:41;;;;;;;5.80;2.03;;;16.40;99.90;;;;;;5055985;28;20025;-80
2022/09/14 07:17:06;;;;;;;7.50;2.60;;;16.30;99.90;;;;;;5056790;28;20024;-81
2022/09/14 07:19:32;;;;;;;8.02;1.80;;;16.40;99.90;;;;;;5055307;28;20484;-79
2022/09/14 07:21:57;;;;;;;5.75;1.90;;;16.40;99.90;;;;;;5057165;28;20029;-79
2022/09/14 07:24:23;;;;;;;6.03;2.28;;;16.40;99.90;;;;;;5055934;28;20552;-79
2022/09/14 07:26:49;;;;;;;6.65;1.90;;;16.50;99.90;;;;;;5055190;28;20514;-80
2022/09/14 07:29:18;;;;;;;4.70;1.70;;;16.50;99.90;;;;;;5054413;28;20041;-79
2022/09/14 07:31:50;;;;;;;4.85;1.90;;;16.60;99.90;;;;;;5055933;28;20067;-81
2022/09/14 07:34:16;;;;;;;5.40;2.15;;;16.60;99.90;;;;;;5055298;28;20047;-79
2022/09/14 07:36:43;;;;;;;8.10;2.00;;;16.60;99.90;;;;;;5055551;28;20021;-80
2022/09/14 07:39:13;;;;;;;8.80;1.92;;;16.70;99.90;;;;;;5054541;28;20473;-80
2022/09/14 07:41:39;;;;;;;;;;;16.70;99.90;;;;;;5055225;28;20025;-82
2022/09/14 07:44:06;;;;;;;1.83;1.20;;;16.70;99.90;;;;;;5054146;28;19920;-79
2022/09/14 07:46:37;;;;;;;7.15;1.90;;;16.70;99.90;;;;;;5055059;28;20021;-81
2022/09/14 07:49:04;;;;;;;4.60;1.55;;;16.60;99.90;;;;;;5054163;28;20025;-80
2022/09/14 07:51:31;;;;;;;5.45;2.30;;;16.60;99.90;;;;;;5054579;28;20025;-80
2022/09/14 07:53:59;;;;;;;6.95;2.47;;;16.60;99.90;;;;;;5054596;28;20033;-80
2022/09/14 07:56:25;;;;;;;6.60;1.80;;;16.60;99.90;;;;;;5054142;28;20488;-80
2022/09/14 07:58:55;;;;;;;6.50;1.77;;;16.60;99.90;;;;;;5054748;28;20151;-81
2022/09/14 08:01:22;;;;;;;6.10;1.55;;;16.70;99.90;;;;;;5054800;28;20366;-81
2022/09/14 08:03:47;;;;;;;4.60;1.50;;;16.60;99.90;;;;;;5053943;28;20376;-80
2022/09/14 08:06:21;;;;;;;6.68;1.52;;;16.70;99.90;;;;;;5054617;28;20033;-82
2022/09/14 08:08:49;;;;;;;4.78;1.55;;;16.70;99.90;;;;;;5054767;28;20100;-81
2022/09/14 08:11:18;;;;;;;3.65;1.63;;;16.70;99.90;;;;;;5054125;28;20029;-80
2022/09/14 08:13:50;;;;;;;10.15;2.78;;;16.70;99.90;;;;;;5054984;28;20044;-79
2022/09/14 08:16:18;;;;;;;5.20;1.50;;;16.70;99.90;;;;;;5055034;28;20021;-80
2022/09/14 08:18:44;;;;;;;5.60;1.40;;;16.70;99.90;;;;;;5054615;28;20076;-80
2022/09/14 08:21:15;;;;;;;6.32;1.83;;;16.70;99.90;;;;;;5055374;28;20017;-80
2022/09/14 08:23:43;;;;;;;7.47;1.70;;;16.70;99.90;;;;;;5055488;28;20338;-81
2022/09/14 08:26:11;;;;;;;3.78;1.70;;;16.70;99.90;;;;;;5053776;28;20485;-80
2022/09/14 08:28:37;;;;;;;4.82;1.60;;;16.70;99.90;;;;;;5054483;28;20025;-80
2022/09/14 08:31:13;;;;;;;8.80;2.28;;;16.70;99.90;;;;;;5054823;28;20366;-79
2022/09/14 08:33:41;;;;;;;6.35;1.58;;;16.80;99.90;;;;;;5054645;28;20094;-82
2022/09/14 08:36:08;;;;;;;3.65;1.70;;;16.80;99.90;;;;;;5054360;28;20021;-81
2022/09/14 08:38:34;;;;;;;4.05;1.30;;;16.80;99.90;;;;;;5053731;28;20029;-80
2022/09/14 08:41:15;;;;;;;2.88;1.27;;;16.80;99.90;;;;;;5054321;28;20017;-81
2022/09/14 08:43:40;;;;;;;5.35;1.60;;;16.90;99.90;;;;;;5054083;28;20112;-81
2022/09/14 08:46:28;;;;;;;8.27;2.10;;;16.90;99.90;;;;;;5053236;28;20114;-81
2022/09/14 08:48:55;;;;;;;4.97;1.50;;;16.90;99.90;;;;;;5054050;28;20124;-82
2022/09/14 08:51:21;;;;;;;4.95;1.65;;;17.00;99.90;;;;;;5054007;28;20032;-81
2022/09/14 08:53:48;;;;;;;5.65;2.33;;;17.10;99.90;;;;;;5053524;28;20376;-82
2022/09/14 08:56:25;;;;;;;4.00;1.67;;;17.20;99.90;;;;;;5052691;28;20036;-82
2022/09/14 08:59:07;;;;;;;8.57;2.60;;;17.30;99.90;;;;;;5054187;28;20029;-82
2022/09/14 09:01:45;;;;;;;10.95;2.55;;;17.40;99.90;;;;;;5053153;28;20423;-81
2022/09/14 09:04:23;;;;;;;7.45;1.80;;;17.50;99.90;;;;;;5055356;28;20469;-83
2022/09/14 09:06:58;;;;;;;4.20;2.00;;;17.50;99.90;;;;;;5058626;28;20592;-81
2022/09/14 09:09:46;;;;;;;5.38;2.03;;;17.60;99.90;;;;;;5057790;28;20127;-80
2022/09/14 09:12:38;;;;;;;5.57;1.75;;;17.50;99.90;;;;;;5059193;28;20481;-83
2022/09/14 09:15:27;;;;;;;5.07;1.80;;;17.50;99.90;;;;;;5060782;28;20021;-81
2022/09/14 09:18:35;;;;;;;4.30;1.65;;;17.50;99.90;;;;;;5057909;28;20068;-80
2022/09/14 09:21:13;;;;;;;4.60;1.40;;;17.60;99.90;;;;;;5051064;28;20065;-81
2022/09/14 09:23:40;;;;;;;6.18;1.67;;;17.60;99.90;;;;;;5060305;28;20048;-81
2022/09/14 09:26:13;;;;;;;5.80;1.50;;;17.80;99.90;;;;;;5059837;28;20040;-80
2022/09/14 09:28:47;;;;;;;9.20;1.70;;;17.80;99.90;;;;;;5059334;28;20029;-82
2022/09/14 09:31:14;;;;;;;6.25;1.70;;;17.80;99.90;;;;;;5059144;28;20028;-81
2022/09/14 09:33:40;;;;;;;3.83;1.73;;;17.90;99.90;;;;;;5059138;28;20090;-81
2022/09/14 09:36:09;;;;;;;3.85;1.52;;;17.90;99.90;;;;;;5074009;28;20105;-80
2022/09/14 09:38:35;;;;;;;3.20;1.73;;;17.90;99.90;;;;;;5078404;28;20039;-80
2022/09/14 09:41:09;;;;;;;5.78;1.92;;;17.90;99.90;;;;;;5076625;28;20104;-78
2022/09/14 09:43:42;;;;;;;10.50;2.03;;;17.90;99.90;;;;;;5075470;28;20029;-81
2022/09/14 09:46:08;;;;;;;7.00;1.98;;;17.90;99.90;;;;;;5079361;28;20032;-79
2022/09/14 09:48:41;;;;;;;3.97;2.25;;;17.90;99.90;;;;;;5078192;28;20025;-80
2022/09/14 09:51:32;;;;;;;8.85;2.10;;;17.90;99.90;;;;;;5068735;28;20033;-81
2022/09/14 09:54:14;;;;;;;6.75;1.92;;;17.90;99.90;;;;;;5070010;28;20033;-80
2022/09/14 09:57:03;;;;;;;6.43;1.27;;;17.90;99.90;;;;;;5059627;28;20109;-80
2022/09/14 09:59:43;;;;;;;4.80;1.33;;;17.90;99.90;;;;;;5057382;28;20028;-80
2022/09/14 10:02:22;;;;;;;4.15;1.40;;;18.00;99.90;;;;;;5057764;28;20307;-80
2022/09/14 10:04:55;;;;;;;3.23;1.70;;;18.00;99.90;;;;;;5057197;28;20082;-81
2022/09/14 10:07:22;;;;;;;2.97;1.20;;;18.00;99.90;;;;;;5057363;28;20021;-80
2022/09/14 10:10:03;;;;;;;6.80;1.80;;;18.00;99.90;;;;;;5056441;28;20025;-80
2022/09/14 10:12:30;;;;;;;3.22;1.17;;;18.10;99.90;;;;;;5058798;28;20059;-79
2022/09/14 10:15:24;;;;;;;5.03;1.23;;;18.20;99.90;;;;;;5057479;28;20021;-82
2022/09/14 10:18:09;;;;;;;3.80;1.30;;;18.10;99.90;;;;;;5055209;28;20062;-80
2022/09/14 10:20:37;;;;;;;5.30;1.23;;;18.10;99.90;;;;;;5056981;28;20029;-80
2022/09/14 10:23:24;;;;;;;3.30;1.17;;;18.10;99.90;;;;;;5056384;28;20033;-81
2022/09/14 10:25:52;;;;;;;7.13;1.60;;;18.20;99.90;;;;;;5056127;28;20438;-81
2022/09/14 10:28:27;;;;;;;4.97;1.70;;;18.20;99.90;;;;;;5056674;28;20021;-82
2022/09/14 10:31:14;;;;;;;4.20;1.38;;;18.20;99.90;;;;;;5056098;28;20021;-80
2022/09/14 10:33:41;;;;;;;7.40;1.92;;;18.30;99.90;;;;;;5056802;28;20095;-81
2022/09/14 10:36:15;;;;;;;6.25;1.70;;;18.40;99.90;;;;;;5056607;28;20024;-81
2022/09/14 10:38:42;;;;;;;4.28;1.52;;;18.40;99.90;;;;;;5055906;28;20439;-83
2022/09/14 10:41:48;;;;;;;3.03;1.00;;;18.40;99.90;;;;;;5056240;28;20484;-81
2022/09/14 10:44:32;;;;;;;5.05;1.25;;;18.40;99.90;;;;;;5056412;28;20053;-81
2022/09/14 10:47:20;;;;;;;4.00;1.42;;;18.40;99.90;;;;;;5055178;28;20384;-79
2022/09/14 10:50:00;;;;;;;4.28;1.10;;;18.30;99.90;;;;;;5056188;28;20040;-81
2022/09/14 10:52:32;;;;;;;4.85;1.58;;;18.30;99.90;;;;;;5055340;28;20087;-82
2022/09/14 10:55:15;;;;;;;7.43;1.20;;;18.40;99.90;;;;;;5056329;28;20033;-81
2022/09/14 10:58:01;;;;;;;4.15;1.33;;;18.40;99.90;;;;;;5056322;28;20025;-81
2022/09/14 11:00:35;;;;;;;4.63;1.85;;;18.40;99.90;;;;;;5055201;28;20029;-80
2022/09/14 11:03:07;;;;;;;3.83;0.77;;;18.50;99.90;;;;;;5056235;28;20412;-82
2022/09/14 11:06:10;;;;;;;0.77;0.70;;;18.60;99.90;;;;;;5056268;28;20481;-82
2022/09/14 11:08:45;;;;;;;5.90;1.50;;;18.60;99.90;;;;;;5056110;28;20507;-81
2022/09/14 11:11:13;;;;;;;2.63;1.20;;;18.70;99.90;;;;;;5055949;28;20025;-81
2022/09/14 11:13:54;;;;;;;4.32;1.63;;;18.70;99.90;;;;;;5055986;28;20048;-81
2022/09/14 11:16:49;;;;;;;3.60;1.20;;;18.70;99.90;;;;;;5055749;28;20017;-80
2022/09/14 11:19:26;;;;;;;3.85;1.15;;;18.80;99.90;;;;;;5057875;28;20037;-80
2022/09/14 11:22:14;;;;;;;5.55;1.40;;;18.80;99.90;;;;;;5060954;28;20017;-81
2022/09/14 11:24:52;;;;;;;5.65;1.42;;;18.80;99.90;;;;;;5056734;28;20076;-81
2022/09/14 11:27:24;;;;;;;3.15;1.85;;;18.80;99.90;;;;;;5055053;28;20111;-81
2022/09/14 11:30:00;;;;;;;5.10;2.05;;;18.90;99.90;;;;;;5055354;28;20021;-81
2022/09/14 11:32:47;;;;;;;4.97;1.92;;;19.00;99.90;;;;;;5068178;28;20100;-82
2022/09/14 11:35:20;;;;;;;2.78;1.80;;;19.00;99.90;;;;;;5058876;28;20025;-83
2022/09/14 11:37:52;;;;;;;4.03;2.00;;;19.00;99.90;;;;;;5071851;28;20041;-83
2022/09/14 11:40:22;;;;;;;3.47;2.17;;;19.10;99.90;;;;;;5057899;28;20036;-83
2022/09/14 11:42:56;;;;;;;4.85;1.88;;;19.20;99.90;;;;;;5055461;28;20025;-76
2022/09/14 11:45:30;;;;;;;9.65;2.65;;;19.30;99.90;;;;;;5056490;28;20025;-81
2022/09/14 11:48:29;;;;;;;9.30;2.67;;;19.50;99.90;;;;;;5049813;28;20029;-82
2022/09/14 11:51:07;;;;;;;5.90;2.40;;;19.50;99.90;;;;;;5040275;28;20504;-82
2022/09/14 11:53:33;;;;;;;6.03;2.20;;;19.50;99.90;;;;;;5052118;28;20292;-81
2022/09/14 11:55:59;;;;;;;6.07;2.38;;;19.50;99.90;;;;;;5046305;28;20108;-80
2022/09/14 11:58:30;;;;;;;4.05;1.95;;;19.60;99.90;;;;;;5054916;28;20060;-82
2022/09/14 12:01:35;;;;;;;3.03;2.00;;;19.50;99.90;;;;;;5055672;28;20024;-81
2022/09/14 12:04:07;;;;;;;5.10;1.90;;;19.60;99.90;;;;;;5055057;28;20036;-79
2022/09/14 12:06:36;;;;;;;5.55;2.60;;;19.60;99.90;;;;;;5041540;28;20033;-80
2022/09/14 12:09:18;;;;;;;3.97;2.30;;;19.70;99.90;;;;;;5037929;28;20018;-80
2022/09/14 12:11:44;;;;;;;5.15;2.10;;;19.60;99.90;;;;;;5034443;28;20026;-81
2022/09/14 12:14:22;;;;;;;4.90;2.58;;;19.60;99.90;;;;;;5033660;28;20033;-83
2022/09/14 12:17:20;;;;;;;3.78;2.42;;;19.50;99.90;;;;;;5033563;28;20056;-81
2022/09/14 12:19:51;;;;;;;4.18;2.35;;;19.50;99.90;;;;;;5052623;28;20039;-80
2022/09/14 12:22:28;;;;;;;;;;;19.50;99.90;;;;;;5042838;28;20575;-78
2022/09/14 12:25:02;;;;;;;5.53;1.73;;;19.50;99.90;;;;;;5046228;28;20059;-80
2022/09/14 12:27:31;;;;;;;8.10;2.30;;;19.60;99.90;;;;;;5052806;28;20021;-80
2022/09/14 12:29:57;;;;;;;5.20;2.13;;;19.70;99.90;;;;;;5039271;28;20029;-82
2022/09/14 12:32:25;;;;;;;5.25;2.20;;;19.70;99.90;;;;;;5052381;28;20035;-82
2022/09/14 12:35:28;;;;;;;4.20;1.95;;;19.80;99.90;;;;;;5053453;28;20025;-80
2022/09/14 12:37:54;;;;;;;3.88;1.90;;;19.90;99.90;;;;;;5052250;28;20036;-81
2022/09/14 12:40:19;;;;;;;3.25;1.88;;;20.00;99.90;;;;;;5052053;28;20021;-81
2022/09/14 12:42:45;;;;;;;5.82;2.30;;;20.10;99.90;;;;;;5052984;28;20468;-81
2022/09/14 12:45:59;;;;;;;7.32;2.78;;;20.10;99.90;;;;;;5052480;28;20063;-82
2022/09/14 12:48:46;;;;;;;5.82;2.33;;;19.90;99.90;;;;;;5030348;28;20604;-79
2022/09/14 12:51:17;;;;;;;5.53;2.25;;;19.90;99.90;;;;;;5030434;28;20030;-81
2022/09/14 12:53:44;;;;;;;3.50;1.90;;;20.00;99.90;;;;;;5033775;28;20067;-80
2022/09/14 12:56:19;;;;;;;4.60;2.30;;;20.00;99.90;;;;;;5046247;28;20330;-80
2022/09/14 12:59:09;;;;;;;5.57;2.20;;;20.10;99.90;;;;;;5046802;28;20126;-81
2022/09/14 13:01:39;;;;;;;4.50;2.05;;;20.20;99.90;;;;;;5053666;28;20017;-79
2022/09/14 13:04:13;;;;;;;9.43;2.85;;;20.40;99.90;;;;;;5053415;28;20044;-79
2022/09/14 13:06:45;;;;;;;4.60;2.30;;;20.40;99.90;;;;;;5052661;28;20029;-80
2022/09/14 13:09:22;;;;;;;3.22;1.83;;;20.40;99.90;;;;;;5052934;28;20032;-80
2022/09/14 13:11:54;;;;;;;3.10;2.10;;;20.50;99.90;;;;;;5054236;28;20036;-81
2022/09/14 13:14:25;;;;;;;6.15;2.65;;;20.60;99.90;;;;;;5052615;28;20067;-80